sensor_id;sensor_type;location;lat;lon;timestamp;pressure;altitude;pressure_sealevel;temperature;humidity
15880;BME280;61999;51.514;14.614;2023-04-21T00:01:02;100269.84;;;4.71;54.70
15880;BME280;61999;51.514;14.614;2023-04-21T00:03:34;100260.22;;;4.72;54.80
15880;BME280;61999;51.514;14.614;2023-04-21T00:06:05;100259.44;;;4.70;55.35
15880;BME280;61999;51.514;14.614;2023-04-21T00:08:35;100250.09;;;4.66;55.92
15880;BME280;61999;51.514;14.614;2023-04-21T00:11:06;100241.72;;;4.59;56.98
15880;BME280;61999;51.514;14.614;2023-04-21T00:13:34;100247.66;;;4.62;57.42
15880;BME280;61999;51.514;14.614;2023-04-21T00:16:03;100243.50;;;4.58;58.04
15880;BME280;61999;51.514;14.614;2023-04-21T00:18:31;100248.22;;;4.68;56.79
15880;BME280;61999;51.514;14.614;2023-04-21T00:20:59;100234.09;;;4.72;56.63
15880;BME280;61999;51.514;14.614;2023-04-21T00:23:28;100236.94;;;4.67;57.21
15880;BME280;61999;51.514;14.614;2023-04-21T00:25:56;100235.94;;;4.70;56.90
15880;BME280;61999;51.514;14.614;2023-04-21T00:28:25;100233.19;;;4.73;57.22
15880;BME280;61999;51.514;14.614;2023-04-21T00:30:53;100231.66;;;4.69;57.46
15880;BME280;61999;51.514;14.614;2023-04-21T00:33:21;100237.50;;;4.74;57.18
15880;BME280;61999;51.514;14.614;2023-04-21T00:35:49;100235.44;;;4.63;57.68
15880;BME280;61999;51.514;14.614;2023-04-21T00:38:17;100234.78;;;4.75;56.69
15880;BME280;61999;51.514;14.614;2023-04-21T00:40:46;100239.22;;;4.73;56.88
15880;BME280;61999;51.514;14.614;2023-04-21T00:43:14;100233.78;;;4.78;56.35
15880;BME280;61999;51.514;14.614;2023-04-21T00:45:44;100241.47;;;4.81;56.37
15880;BME280;61999;51.514;14.614;2023-04-21T00:48:12;100238.53;;;4.87;55.89
15880;BME280;61999;51.514;14.614;2023-04-21T00:50:41;100242.56;;;4.93;55.46
15880;BME280;61999;51.514;14.614;2023-04-21T00:53:11;100240.84;;;4.76;56.56
15880;BME280;61999;51.514;14.614;2023-04-21T00:55:39;100246.25;;;4.38;58.46
15880;BME280;61999;51.514;14.614;2023-04-21T00:58:08;100245.94;;;4.44;58.16
15880;BME280;61999;51.514;14.614;2023-04-21T01:00:37;100244.81;;;3.79;60.66
15880;BME280;61999;51.514;14.614;2023-04-21T01:03:06;100251.22;;;4.08;59.43
15880;BME280;61999;51.514;14.614;2023-04-21T01:05:34;100258.56;;;3.44;62.58
15880;BME280;61999;51.514;14.614;2023-04-21T01:08:03;100242.72;;;3.68;61.68
15880;BME280;61999;51.514;14.614;2023-04-21T01:10:33;100248.22;;;3.98;60.21
15880;BME280;61999;51.514;14.614;2023-04-21T01:13:01;100252.41;;;4.19;58.47
15880;BME280;61999;51.514;14.614;2023-04-21T01:15:30;100250.00;;;4.32;57.19
15880;BME280;61999;51.514;14.614;2023-04-21T01:17:58;100240.56;;;4.12;58.08
15880;BME280;61999;51.514;14.614;2023-04-21T01:20:26;100244.00;;;3.95;58.69
15880;BME280;61999;51.514;14.614;2023-04-21T01:22:56;100234.34;;;4.15;57.63
15880;BME280;61999;51.514;14.614;2023-04-21T01:25:24;100238.25;;;4.24;56.28
15880;BME280;61999;51.514;14.614;2023-04-21T01:27:54;100231.38;;;4.23;55.56
15880;BME280;61999;51.514;14.614;2023-04-21T01:30:22;100235.66;;;4.06;56.65
15880;BME280;61999;51.514;14.614;2023-04-21T01:32:50;100231.94;;;4.10;56.04
15880;BME280;61999;51.514;14.614;2023-04-21T01:35:18;100232.94;;;4.08;55.44
15880;BME280;61999;51.514;14.614;2023-04-21T01:37:46;100238.94;;;3.92;56.21
15880;BME280;61999;51.514;14.614;2023-04-21T01:40:16;100232.72;;;3.95;55.15
15880;BME280;61999;51.514;14.614;2023-04-21T01:42:44;100234.31;;;3.80;55.78
15880;BME280;61999;51.514;14.614;2023-04-21T01:45:12;100224.56;;;3.84;54.83
15880;BME280;61999;51.514;14.614;2023-04-21T01:47:40;100231.63;;;3.82;54.61
15880;BME280;61999;51.514;14.614;2023-04-21T01:50:09;100223.03;;;3.80;54.38
15880;BME280;61999;51.514;14.614;2023-04-21T01:52:37;100229.75;;;3.66;55.20
15880;BME280;61999;51.514;14.614;2023-04-21T01:55:06;100222.78;;;3.67;54.68
15880;BME280;61999;51.514;14.614;2023-04-21T01:57:35;100225.47;;;3.65;54.29
15880;BME280;61999;51.514;14.614;2023-04-21T02:00:04;100227.28;;;3.63;54.37
15880;BME280;61999;51.514;14.614;2023-04-21T02:02:32;100229.25;;;3.58;54.27
15880;BME280;61999;51.514;14.614;2023-04-21T02:05:00;100228.63;;;3.53;54.54
15880;BME280;61999;51.514;14.614;2023-04-21T02:07:28;100230.63;;;3.48;54.94
15880;BME280;61999;51.514;14.614;2023-04-21T02:09:56;100233.09;;;3.51;55.14
15880;BME280;61999;51.514;14.614;2023-04-21T02:12:24;100226.91;;;3.54;55.48
15880;BME280;61999;51.514;14.614;2023-04-21T02:14:53;100225.88;;;3.56;55.76
15880;BME280;61999;51.514;14.614;2023-04-21T02:17:21;100224.06;;;3.58;56.01
15880;BME280;61999;51.514;14.614;2023-04-21T02:19:49;100227.44;;;3.60;56.03
15880;BME280;61999;51.514;14.614;2023-04-21T02:22:18;100230.81;;;3.62;56.52
15880;BME280;61999;51.514;14.614;2023-04-21T02:24:48;100223.75;;;3.64;56.02
15880;BME280;61999;51.514;14.614;2023-04-21T02:27:16;100222.38;;;3.57;57.63
15880;BME280;61999;51.514;14.614;2023-04-21T02:29:44;100221.16;;;3.64;56.92
15880;BME280;61999;51.514;14.614;2023-04-21T02:32:13;100225.31;;;3.68;56.44
15880;BME280;61999;51.514;14.614;2023-04-21T02:34:47;100221.78;;;3.69;56.30
15880;BME280;61999;51.514;14.614;2023-04-21T02:37:15;100219.13;;;3.71;56.47
15880;BME280;61999;51.514;14.614;2023-04-21T02:39:43;100224.34;;;3.71;56.66
15880;BME280;61999;51.514;14.614;2023-04-21T02:42:11;100222.47;;;3.73;56.21
15880;BME280;61999;51.514;14.614;2023-04-21T02:44:39;100218.13;;;3.73;56.05
15880;BME280;61999;51.514;14.614;2023-04-21T02:47:08;100223.34;;;3.73;56.10
15880;BME280;61999;51.514;14.614;2023-04-21T02:49:41;100219.81;;;3.74;56.13
15880;BME280;61999;51.514;14.614;2023-04-21T02:52:09;100222.56;;;3.71;55.98
15880;BME280;61999;51.514;14.614;2023-04-21T02:54:36;100223.47;;;3.70;56.25
15880;BME280;61999;51.514;14.614;2023-04-21T02:57:04;100226.94;;;3.71;56.12
15880;BME280;61999;51.514;14.614;2023-04-21T02:59:32;100218.25;;;3.70;55.71
15880;BME280;61999;51.514;14.614;2023-04-21T03:02:00;100214.88;;;3.68;55.83
15880;BME280;61999;51.514;14.614;2023-04-21T03:04:29;100218.41;;;3.67;55.80
15880;BME280;61999;51.514;14.614;2023-04-21T03:06:59;100225.38;;;3.67;55.69
15880;BME280;61999;51.514;14.614;2023-04-21T03:09:27;100216.88;;;3.63;55.70
15880;BME280;61999;51.514;14.614;2023-04-21T03:11:55;100217.84;;;3.61;55.95
15880;BME280;61999;51.514;14.614;2023-04-21T03:14:23;100220.56;;;3.59;55.71
15880;BME280;61999;51.514;14.614;2023-04-21T03:16:51;100218.84;;;3.58;55.56
15880;BME280;61999;51.514;14.614;2023-04-21T03:19:19;100212.84;;;3.56;55.23
15880;BME280;61999;51.514;14.614;2023-04-21T03:21:47;100222.53;;;3.54;55.53
15880;BME280;61999;51.514;14.614;2023-04-21T03:24:16;100213.91;;;3.52;55.17
15880;BME280;61999;51.514;14.614;2023-04-21T03:26:45;100218.44;;;3.48;55.18
15880;BME280;61999;51.514;14.614;2023-04-21T03:29:13;100218.59;;;3.45;55.10
15880;BME280;61999;51.514;14.614;2023-04-21T03:31:40;100218.72;;;3.42;55.15
15880;BME280;61999;51.514;14.614;2023-04-21T03:34:08;100230.16;;;3.40;55.05
15880;BME280;61999;51.514;14.614;2023-04-21T03:36:36;100223.38;;;3.36;55.17
15880;BME280;61999;51.514;14.614;2023-04-21T03:39:04;100222.63;;;3.34;55.15
15880;BME280;61999;51.514;14.614;2023-04-21T03:41:40;100227.19;;;3.28;55.19
15880;BME280;61999;51.514;14.614;2023-04-21T03:44:08;100221.25;;;3.25;55.54
15880;BME280;61999;51.514;14.614;2023-04-21T03:46:36;100221.31;;;3.23;55.54
15880;BME280;61999;51.514;14.614;2023-04-21T03:49:04;100219.63;;;3.22;55.51
15880;BME280;61999;51.514;14.614;2023-04-21T03:51:31;100225.88;;;3.18;56.01
15880;BME280;61999;51.514;14.614;2023-04-21T03:53:59;100218.06;;;3.18;55.67
15880;BME280;61999;51.514;14.614;2023-04-21T03:56:27;100224.19;;;3.17;55.96
15880;BME280;61999;51.514;14.614;2023-04-21T03:58:56;100225.97;;;3.17;56.12
15880;BME280;61999;51.514;14.614;2023-04-21T04:01:24;100214.75;;;3.15;56.02
15880;BME280;61999;51.514;14.614;2023-04-21T04:03:52;100223.41;;;3.15;55.99
15880;BME280;61999;51.514;14.614;2023-04-21T04:06:20;100223.41;;;3.15;56.07
15880;BME280;61999;51.514;14.614;2023-04-21T04:08:48;100219.13;;;3.14;56.11
15880;BME280;61999;51.514;14.614;2023-04-21T04:11:16;100224.25;;;3.16;56.26
15880;BME280;61999;51.514;14.614;2023-04-21T04:13:44;100224.34;;;3.14;56.30
15880;BME280;61999;51.514;14.614;2023-04-21T04:16:14;100231.38;;;3.12;56.95
15880;BME280;61999;51.514;14.614;2023-04-21T04:18:42;100224.47;;;3.11;57.26
15880;BME280;61999;51.514;14.614;2023-04-21T04:21:11;100229.84;;;3.08;57.38
15880;BME280;61999;51.514;14.614;2023-04-21T04:23:39;100234.75;;;3.14;57.43
15880;BME280;61999;51.514;14.614;2023-04-21T04:26:07;100232.22;;;3.13;57.82
15880;BME280;61999;51.514;14.614;2023-04-21T04:28:35;100227.72;;;3.16;57.86
15880;BME280;61999;51.514;14.614;2023-04-21T04:31:03;100227.84;;;3.13;58.33
15880;BME280;61999;51.514;14.614;2023-04-21T04:33:32;100228.63;;;3.15;58.43
15880;BME280;61999;51.514;14.614;2023-04-21T04:36:01;100228.56;;;3.17;58.42
15880;BME280;61999;51.514;14.614;2023-04-21T04:38:28;100227.44;;;3.22;58.43
15880;BME280;61999;51.514;14.614;2023-04-21T04:40:56;100228.47;;;3.18;59.05
15880;BME280;61999;51.514;14.614;2023-04-21T04:43:27;100230.94;;;3.21;59.04
15880;BME280;61999;51.514;14.614;2023-04-21T04:45:55;100232.25;;;3.32;58.35
15880;BME280;61999;51.514;14.614;2023-04-21T04:48:23;100230.94;;;3.21;59.26
15880;BME280;61999;51.514;14.614;2023-04-21T04:50:52;100230.63;;;3.29;58.84
15880;BME280;61999;51.514;14.614;2023-04-21T04:53:20;100240.84;;;3.34;59.07
15880;BME280;61999;51.514;14.614;2023-04-21T04:55:48;100237.19;;;3.38;58.83
15880;BME280;61999;51.514;14.614;2023-04-21T04:58:16;100239.44;;;3.45;59.07
15880;BME280;61999;51.514;14.614;2023-04-21T05:00:44;100240.28;;;3.46;59.37
15880;BME280;61999;51.514;14.614;2023-04-21T05:03:12;100231.13;;;3.37;59.54
15880;BME280;61999;51.514;14.614;2023-04-21T05:05:40;100235.91;;;3.46;59.19
15880;BME280;61999;51.514;14.614;2023-04-21T05:08:09;100238.59;;;3.45;59.50
15880;BME280;61999;51.514;14.614;2023-04-21T05:10:37;100240.28;;;3.46;60.13
15880;BME280;61999;51.514;14.614;2023-04-21T05:13:05;100240.47;;;3.60;59.02
15880;BME280;61999;51.514;14.614;2023-04-21T05:15:33;100240.31;;;3.63;58.79
15880;BME280;61999;51.514;14.614;2023-04-21T05:18:01;100244.69;;;3.63;58.98
15880;BME280;61999;51.514;14.614;2023-04-21T05:20:29;100237.44;;;3.69;58.73
15880;BME280;61999;51.514;14.614;2023-04-21T05:22:57;100250.94;;;3.78;58.48
15880;BME280;61999;51.514;14.614;2023-04-21T05:25:26;100239.44;;;3.82;58.65
15880;BME280;61999;51.514;14.614;2023-04-21T05:27:54;100257.13;;;3.94;57.79
15880;BME280;61999;51.514;14.614;2023-04-21T05:30:22;100258.94;;;3.92;58.13
15880;BME280;61999;51.514;14.614;2023-04-21T05:32:50;100254.13;;;4.02;57.41
15880;BME280;61999;51.514;14.614;2023-04-21T05:35:18;100250.28;;;3.91;57.71
15880;BME280;61999;51.514;14.614;2023-04-21T05:37:46;100252.66;;;3.96;57.87
15880;BME280;61999;51.514;14.614;2023-04-21T05:40:15;100254.53;;;4.11;57.10
15880;BME280;61999;51.514;14.614;2023-04-21T05:42:44;100249.31;;;4.11;57.26
15880;BME280;61999;51.514;14.614;2023-04-21T05:45:12;100253.13;;;4.04;57.44
15880;BME280;61999;51.514;14.614;2023-04-21T05:47:40;100249.47;;;4.08;57.39
15880;BME280;61999;51.514;14.614;2023-04-21T05:50:08;100251.09;;;4.11;57.33
15880;BME280;61999;51.514;14.614;2023-04-21T05:52:36;100252.81;;;4.10;57.93
15880;BME280;61999;51.514;14.614;2023-04-21T05:55:06;100250.00;;;4.15;57.42
15880;BME280;61999;51.514;14.614;2023-04-21T05:57:34;100252.66;;;4.13;57.33
15880;BME280;61999;51.514;14.614;2023-04-21T06:00:05;100242.22;;;4.13;58.01
15880;BME280;61999;51.514;14.614;2023-04-21T06:02:33;100249.53;;;4.24;58.10
15880;BME280;61999;51.514;14.614;2023-04-21T06:05:01;100248.84;;;4.38;57.45
15880;BME280;61999;51.514;14.614;2023-04-21T06:07:29;100242.25;;;4.31;57.76
15880;BME280;61999;51.514;14.614;2023-04-21T06:09:57;100243.94;;;4.49;57.50
15880;BME280;61999;51.514;14.614;2023-04-21T06:12:25;100240.25;;;4.53;57.25
15880;BME280;61999;51.514;14.614;2023-04-21T06:14:53;100249.94;;;4.69;57.23
15880;BME280;61999;51.514;14.614;2023-04-21T06:17:24;100249.47;;;4.78;56.94
15880;BME280;61999;51.514;14.614;2023-04-21T06:19:52;100251.22;;;4.77;56.23
15880;BME280;61999;51.514;14.614;2023-04-21T06:22:22;100248.81;;;4.90;55.92
15880;BME280;61999;51.514;14.614;2023-04-21T06:24:50;100240.22;;;4.88;55.75
15880;BME280;61999;51.514;14.614;2023-04-21T06:27:18;100240.63;;;4.80;57.10
15880;BME280;61999;51.514;14.614;2023-04-21T06:29:46;100236.50;;;4.92;57.09
15880;BME280;61999;51.514;14.614;2023-04-21T06:32:14;100232.97;;;4.93;56.70
15880;BME280;61999;51.514;14.614;2023-04-21T06:34:43;100233.84;;;5.09;56.91
15880;BME280;61999;51.514;14.614;2023-04-21T06:37:11;100234.94;;;5.21;57.08
15880;BME280;61999;51.514;14.614;2023-04-21T06:39:39;100233.72;;;5.28;56.65
15880;BME280;61999;51.514;14.614;2023-04-21T06:42:07;100234.63;;;5.43;56.83
15880;BME280;61999;51.514;14.614;2023-04-21T06:44:35;100234.22;;;5.51;56.59
15880;BME280;61999;51.514;14.614;2023-04-21T06:47:03;100221.22;;;5.49;56.18
15880;BME280;61999;51.514;14.614;2023-04-21T06:49:31;100224.56;;;5.67;56.57
15880;BME280;61999;51.514;14.614;2023-04-21T06:52:01;100227.16;;;5.69;56.70
15880;BME280;61999;51.514;14.614;2023-04-21T06:54:29;100222.41;;;5.75;55.99
15880;BME280;61999;51.514;14.614;2023-04-21T06:56:57;100212.94;;;5.73;56.35
15880;BME280;61999;51.514;14.614;2023-04-21T06:59:25;100218.84;;;5.76;56.37
15880;BME280;61999;51.514;14.614;2023-04-21T07:01:53;100220.50;;;5.93;55.97
15880;BME280;61999;51.514;14.614;2023-04-21T07:04:21;100227.44;;;5.94;55.20
15880;BME280;61999;51.514;14.614;2023-04-21T07:06:49;100226.16;;;6.02;56.23
15880;BME280;61999;51.514;14.614;2023-04-21T07:09:19;100223.22;;;6.22;54.78
15880;BME280;61999;51.514;14.614;2023-04-21T07:11:47;100219.03;;;6.34;54.41
15880;BME280;61999;51.514;14.614;2023-04-21T07:14:15;100217.13;;;6.52;53.86
15880;BME280;61999;51.514;14.614;2023-04-21T07:16:42;100224.22;;;6.64;53.35
15880;BME280;61999;51.514;14.614;2023-04-21T07:19:10;100227.03;;;6.75;53.16
15880;BME280;61999;51.514;14.614;2023-04-21T07:21:38;100232.13;;;6.93;52.99
15880;BME280;61999;51.514;14.614;2023-04-21T07:24:07;100219.66;;;7.10;52.62
15880;BME280;61999;51.514;14.614;2023-04-21T07:26:36;100229.84;;;7.29;52.29
15880;BME280;61999;51.514;14.614;2023-04-21T07:29:05;100225.69;;;7.40;52.00
15880;BME280;61999;51.514;14.614;2023-04-21T07:31:33;100226.81;;;7.50;50.57
15880;BME280;61999;51.514;14.614;2023-04-21T07:34:01;100229.34;;;7.51;49.28
15880;BME280;61999;51.514;14.614;2023-04-21T07:36:28;100232.56;;;7.69;49.56
15880;BME280;61999;51.514;14.614;2023-04-21T07:38:57;100217.72;;;7.68;48.65
15880;BME280;61999;51.514;14.614;2023-04-21T07:41:25;100224.47;;;7.87;48.66
15880;BME280;61999;51.514;14.614;2023-04-21T07:43:55;100231.44;;;8.13;49.00
15880;BME280;61999;51.514;14.614;2023-04-21T07:46:22;100221.41;;;8.20;46.60
15880;BME280;61999;51.514;14.614;2023-04-21T07:48:56;100232.88;;;8.32;46.47
15880;BME280;61999;51.514;14.614;2023-04-21T07:51:24;100221.41;;;8.45;45.96
15880;BME280;61999;51.514;14.614;2023-04-21T07:53:53;100214.88;;;8.51;45.81
15880;BME280;61999;51.514;14.614;2023-04-21T07:56:21;100217.34;;;8.80;45.90
15880;BME280;61999;51.514;14.614;2023-04-21T07:58:49;100213.22;;;8.88;43.51
15880;BME280;61999;51.514;14.614;2023-04-21T08:01:18;100218.56;;;9.12;43.72
15880;BME280;61999;51.514;14.614;2023-04-21T08:03:47;100212.13;;;9.17;41.46
15880;BME280;61999;51.514;14.614;2023-04-21T08:06:15;100208.69;;;9.03;41.24
15880;BME280;61999;51.514;14.614;2023-04-21T08:08:43;100212.97;;;9.17;42.23
15880;BME280;61999;51.514;14.614;2023-04-21T08:11:11;100204.44;;;9.50;41.93
15880;BME280;61999;51.514;14.614;2023-04-21T08:13:39;100208.50;;;9.67;40.53
15880;BME280;61999;51.514;14.614;2023-04-21T08:16:07;100210.19;;;9.92;40.13
15880;BME280;61999;51.514;14.614;2023-04-21T08:18:36;100211.09;;;10.15;40.83
15880;BME280;61999;51.514;14.614;2023-04-21T08:21:04;100202.59;;;10.23;38.74
15880;BME280;61999;51.514;14.614;2023-04-21T08:23:32;100201.19;;;10.30;38.14
15880;BME280;61999;51.514;14.614;2023-04-21T08:26:01;100204.59;;;10.66;37.93
15880;BME280;61999;51.514;14.614;2023-04-21T08:28:29;100182.69;;;10.88;38.42
15880;BME280;61999;51.514;14.614;2023-04-21T08:30:57;100198.03;;;10.94;38.14
15880;BME280;61999;51.514;14.614;2023-04-21T08:33:26;100191.63;;;11.19;38.07
15880;BME280;61999;51.514;14.614;2023-04-21T08:35:55;100189.47;;;11.47;38.13
15880;BME280;61999;51.514;14.614;2023-04-21T08:38:28;100194.25;;;11.53;38.06
15880;BME280;61999;51.514;14.614;2023-04-21T08:40:58;100195.66;;;11.89;36.57
15880;BME280;61999;51.514;14.614;2023-04-21T08:43:28;100191.31;;;11.88;33.89
15880;BME280;61999;51.514;14.614;2023-04-21T08:45:56;100195.22;;;12.05;34.07
15880;BME280;61999;51.514;14.614;2023-04-21T08:48:26;100199.31;;;12.30;33.55
15880;BME280;61999;51.514;14.614;2023-04-21T08:50:56;100194.59;;;12.34;33.54
15880;BME280;61999;51.514;14.614;2023-04-21T08:53:25;100194.63;;;12.64;34.04
15880;BME280;61999;51.514;14.614;2023-04-21T08:55:55;100194.22;;;12.69;32.06
15880;BME280;61999;51.514;14.614;2023-04-21T08:58:29;100178.78;;;12.95;33.89
15880;BME280;61999;51.514;14.614;2023-04-21T09:00:57;100186.34;;;12.79;33.12
15880;BME280;61999;51.514;14.614;2023-04-21T09:03:27;100197.72;;;13.00;31.59
15880;BME280;61999;51.514;14.614;2023-04-21T09:06:01;100187.75;;;13.23;29.11
15880;BME280;61999;51.514;14.614;2023-04-21T09:08:31;100190.00;;;13.28;29.92
15880;BME280;61999;51.514;14.614;2023-04-21T09:11:00;100194.63;;;13.55;29.63
15880;BME280;61999;51.514;14.614;2023-04-21T09:13:30;100188.91;;;13.59;29.41
15880;BME280;61999;51.514;14.614;2023-04-21T09:16:00;100183.38;;;14.01;29.82
15880;BME280;61999;51.514;14.614;2023-04-21T09:18:31;100179.25;;;14.26;29.53
15880;BME280;61999;51.514;14.614;2023-04-21T09:21:08;100181.38;;;14.23;29.41
15880;BME280;61999;51.514;14.614;2023-04-21T09:23:41;100183.72;;;14.26;29.38
15880;BME280;61999;51.514;14.614;2023-04-21T09:26:10;100183.25;;;14.60;28.88
15880;BME280;61999;51.514;14.614;2023-04-21T09:28:42;100183.56;;;15.12;28.82
15880;BME280;61999;51.514;14.614;2023-04-21T09:31:13;100176.72;;;15.37;28.12
15880;BME280;61999;51.514;14.614;2023-04-21T09:33:46;100178.16;;;15.31;27.32
15880;BME280;61999;51.514;14.614;2023-04-21T09:36:26;100176.88;;;15.71;27.31
15880;BME280;61999;51.514;14.614;2023-04-21T09:38:55;100173.03;;;15.83;28.26
15880;BME280;61999;51.514;14.614;2023-04-21T09:41:43;100170.44;;;15.92;26.08
15880;BME280;61999;51.514;14.614;2023-04-21T09:44:11;100169.47;;;15.93;26.18
15880;BME280;61999;51.514;14.614;2023-04-21T09:46:41;100176.63;;;16.18;26.23
15880;BME280;61999;51.514;14.614;2023-04-21T09:49:12;100170.16;;;16.47;26.26
15880;BME280;61999;51.514;14.614;2023-04-21T09:51:42;100168.09;;;16.59;25.92
15880;BME280;61999;51.514;14.614;2023-04-21T09:54:32;100170.72;;;16.93;26.08
15880;BME280;61999;51.514;14.614;2023-04-21T09:57:03;100164.03;;;16.89;25.57
15880;BME280;61999;51.514;14.614;2023-04-21T09:59:35;100165.41;;;16.93;25.44
15880;BME280;61999;51.514;14.614;2023-04-21T10:02:05;100160.84;;;17.20;22.68
15880;BME280;61999;51.514;14.614;2023-04-21T10:04:35;100159.69;;;17.38;23.36
15880;BME280;61999;51.514;14.614;2023-04-21T10:07:06;100163.53;;;17.36;24.05
15880;BME280;61999;51.514;14.614;2023-04-21T10:09:40;100159.41;;;16.99;22.85
15880;BME280;61999;51.514;14.614;2023-04-21T10:12:12;100153.44;;;17.80;23.70
15880;BME280;61999;51.514;14.614;2023-04-21T10:14:40;100156.56;;;18.08;22.49
15880;BME280;61999;51.514;14.614;2023-04-21T10:17:09;100137.56;;;18.03;24.04
15880;BME280;61999;51.514;14.614;2023-04-21T10:19:48;100132.63;;;18.56;23.58
15880;BME280;61999;51.514;14.614;2023-04-21T10:22:28;100143.22;;;18.72;22.50
15880;BME280;61999;51.514;14.614;2023-04-21T10:24:58;100138.00;;;19.41;23.26
15880;BME280;61999;51.514;14.614;2023-04-21T10:27:32;100137.88;;;19.12;21.25
15880;BME280;61999;51.514;14.614;2023-04-21T10:30:16;100134.13;;;19.90;19.90
15880;BME280;61999;51.514;14.614;2023-04-21T10:32:45;100132.81;;;19.71;20.15
15880;BME280;61999;51.514;14.614;2023-04-21T10:35:15;100132.44;;;19.51;20.81
15880;BME280;61999;51.514;14.614;2023-04-21T10:37:48;100134.78;;;20.07;20.22
15880;BME280;61999;51.514;14.614;2023-04-21T10:40:33;100123.69;;;20.48;18.65
15880;BME280;61999;51.514;14.614;2023-04-21T10:43:42;100126.16;;;20.49;18.84
15880;BME280;61999;51.514;14.614;2023-04-21T10:46:33;100127.84;;;20.50;18.37
15880;BME280;61999;51.514;14.614;2023-04-21T10:49:06;100123.19;;;20.89;19.16
15880;BME280;61999;51.514;14.614;2023-04-21T10:52:05;100120.50;;;20.00;18.72
15880;BME280;61999;51.514;14.614;2023-04-21T10:54:42;100108.22;;;20.20;20.19
15880;BME280;61999;51.514;14.614;2023-04-21T10:57:13;100127.56;;;20.30;18.82
15880;BME280;61999;51.514;14.614;2023-04-21T10:59:42;100115.16;;;21.10;17.79
15880;BME280;61999;51.514;14.614;2023-04-21T11:02:12;100108.25;;;21.37;18.19
15880;BME280;61999;51.514;14.614;2023-04-21T11:04:41;100102.41;;;21.77;18.21
15880;BME280;61999;51.514;14.614;2023-04-21T11:07:16;100103.59;;;21.74;16.98
15880;BME280;61999;51.514;14.614;2023-04-21T11:09:55;100091.56;;;22.26;17.58
15880;BME280;61999;51.514;14.614;2023-04-21T11:12:27;100093.94;;;22.43;18.33
15880;BME280;61999;51.514;14.614;2023-04-21T11:14:57;100083.53;;;22.74;17.40
15880;BME280;61999;51.514;14.614;2023-04-21T11:17:25;100103.97;;;23.43;15.99
15880;BME280;61999;51.514;14.614;2023-04-21T11:19:55;100093.44;;;23.69;14.73
15880;BME280;61999;51.514;14.614;2023-04-21T11:22:24;100091.13;;;24.12;13.32
15880;BME280;61999;51.514;14.614;2023-04-21T11:24:56;100094.22;;;24.16;13.54
15880;BME280;61999;51.514;14.614;2023-04-21T11:27:27;100093.72;;;24.39;13.82
15880;BME280;61999;51.514;14.614;2023-04-21T11:29:57;100072.94;;;23.74;14.80
15880;BME280;61999;51.514;14.614;2023-04-21T11:32:25;100090.75;;;23.62;13.58
15880;BME280;61999;51.514;14.614;2023-04-21T11:34:53;100078.13;;;23.56;14.83
15880;BME280;61999;51.514;14.614;2023-04-21T11:37:24;100094.06;;;23.64;13.82
15880;BME280;61999;51.514;14.614;2023-04-21T11:39:59;100076.22;;;23.90;13.82
15880;BME280;61999;51.514;14.614;2023-04-21T11:42:27;100073.84;;;24.40;13.21
15880;BME280;61999;51.514;14.614;2023-04-21T11:44:56;100073.50;;;24.74;13.01
15880;BME280;61999;51.514;14.614;2023-04-21T11:47:26;100063.16;;;25.03;13.51
15880;BME280;61999;51.514;14.614;2023-04-21T11:49:56;100048.75;;;25.16;13.63
15880;BME280;61999;51.514;14.614;2023-04-21T11:52:27;100061.88;;;25.62;12.59
15880;BME280;61999;51.514;14.614;2023-04-21T11:55:01;100055.16;;;25.90;13.70
15880;BME280;61999;51.514;14.614;2023-04-21T11:57:31;100045.56;;;26.31;13.42
15880;BME280;61999;51.514;14.614;2023-04-21T12:00:00;100054.88;;;26.53;13.85
15880;BME280;61999;51.514;14.614;2023-04-21T12:02:30;100051.09;;;27.15;13.42
15880;BME280;61999;51.514;14.614;2023-04-21T12:05:01;100054.69;;;27.51;11.16
15880;BME280;61999;51.514;14.614;2023-04-21T12:07:31;100052.41;;;27.36;11.97
15880;BME280;61999;51.514;14.614;2023-04-21T12:10:08;100046.72;;;27.14;12.21
15880;BME280;61999;51.514;14.614;2023-04-21T12:12:37;100033.09;;;26.30;13.20
15880;BME280;61999;51.514;14.614;2023-04-21T12:15:08;100048.44;;;26.96;12.63
15880;BME280;61999;51.514;14.614;2023-04-21T12:17:37;100043.41;;;26.70;12.23
15880;BME280;61999;51.514;14.614;2023-04-21T12:20:07;100049.09;;;27.10;11.82
15880;BME280;61999;51.514;14.614;2023-04-21T12:22:35;100032.50;;;27.30;12.28
15880;BME280;61999;51.514;14.614;2023-04-21T12:25:06;100027.22;;;27.24;13.08
15880;BME280;61999;51.514;14.614;2023-04-21T12:27:34;100025.19;;;27.19;12.77
15880;BME280;61999;51.514;14.614;2023-04-21T12:30:04;100018.44;;;27.52;13.17
15880;BME280;61999;51.514;14.614;2023-04-21T12:32:32;100039.34;;;28.15;12.01
15880;BME280;61999;51.514;14.614;2023-04-21T12:35:00;100032.41;;;28.48;10.64
15880;BME280;61999;51.514;14.614;2023-04-21T12:37:29;100037.19;;;28.17;11.70
15880;BME280;61999;51.514;14.614;2023-04-21T12:39:57;100031.72;;;28.69;11.35
15880;BME280;61999;51.514;14.614;2023-04-21T12:42:27;100031.63;;;29.27;10.87
15880;BME280;61999;51.514;14.614;2023-04-21T12:44:55;100027.59;;;28.95;10.44
15880;BME280;61999;51.514;14.614;2023-04-21T12:47:23;100011.78;;;29.09;10.41
15880;BME280;61999;51.514;14.614;2023-04-21T12:49:51;100027.72;;;29.23;9.86
15880;BME280;61999;51.514;14.614;2023-04-21T12:52:19;100023.84;;;28.85;9.43
15880;BME280;61999;51.514;14.614;2023-04-21T12:54:47;100018.31;;;28.80;10.06
15880;BME280;61999;51.514;14.614;2023-04-21T12:57:15;100021.78;;;28.92;11.06